createdAt,value
2023-05-17T00:00:27.006Z,80.68
2023-05-17T00:03:14.673Z,80.92
2023-05-17T00:05:42.886Z,80.89
2023-05-17T00:08:11.446Z,80.81
2023-05-17T00:10:39.438Z,80.95
2023-05-17T00:13:07.359Z,81.07
2023-05-17T00:15:35.349Z,81.18
2023-05-17T00:18:03.238Z,81.19
2023-05-17T00:20:51.222Z,81.32
2023-05-17T00:23:19.190Z,81.31
2023-05-17T00:25:47.170Z,81.39
2023-05-17T00:28:15.183Z,81.49
2023-05-17T00:30:43.247Z,81.78
2023-05-17T00:33:11.151Z,82.20
2023-05-17T00:35:39.132Z,82.73
2023-05-17T00:38:07.455Z,82.71
2023-05-17T00:40:35.459Z,82.91
2023-05-17T00:43:03.470Z,83.07
2023-05-17T00:45:31.425Z,83.20
2023-05-17T00:47:59.469Z,83.18
2023-05-17T00:50:27.546Z,83.24
2023-05-17T00:52:56.662Z,83.47
2023-05-17T00:55:24.629Z,83.55
2023-05-17T00:57:53.837Z,83.50
2023-05-17T01:00:22.168Z,83.53
2023-05-17T01:02:51.049Z,83.43
2023-05-17T01:05:19.148Z,83.39
2023-05-17T01:07:47.118Z,83.30
2023-05-17T01:10:16.280Z,83.17
2023-05-17T01:13:20.300Z,83.10
2023-05-17T01:16:01.419Z,83.05
2023-05-17T01:18:47.138Z,82.88
2023-05-17T01:21:47.632Z,82.87
2023-05-17T01:24:33.701Z,83.21
2023-05-17T01:27:05.132Z,83.39
2023-05-17T01:29:35.985Z,83.57
2023-05-17T01:32:06.385Z,83.91
2023-05-17T01:34:35.379Z,84.28
2023-05-17T01:37:04.223Z,84.35
2023-05-17T01:39:32.297Z,84.22
2023-05-17T01:42:11.260Z,84.35
2023-05-17T01:45:14.029Z,84.60
2023-05-17T01:47:59.945Z,84.79
2023-05-17T01:50:30.799Z,84.72
2023-05-17T01:53:17.715Z,84.70
2023-05-17T01:55:52.133Z,84.81
2023-05-17T01:58:26.084Z,84.78
2023-05-17T02:00:56.730Z,84.71
2023-05-17T02:03:25.310Z,84.66
2023-05-17T02:05:56.096Z,84.43
2023-05-17T02:08:23.989Z,84.27
2023-05-17T02:10:52.518Z,84.12
2023-05-17T02:13:20.462Z,84.06
2023-05-17T02:15:48.490Z,83.80
2023-05-17T02:18:16.713Z,83.63
2023-05-17T02:20:44.737Z,83.42
2023-05-17T02:23:12.883Z,83.22
2023-05-17T02:25:40.817Z,83.02
2023-05-17T02:28:08.735Z,82.75
2023-05-17T02:30:40.960Z,82.12
2023-05-17T02:33:09.209Z,81.99
2023-05-17T02:35:37.371Z,81.87
2023-05-17T02:38:05.362Z,81.89
2023-05-17T02:40:33.407Z,82.17
2023-05-17T02:43:03.778Z,82.43
2023-05-17T02:45:32.029Z,82.71
2023-05-17T02:47:59.909Z,82.51
2023-05-17T02:50:27.896Z,82.25
2023-05-17T02:52:56.015Z,82.18
2023-05-17T02:55:23.947Z,82.16
2023-05-17T02:57:51.943Z,82.17
2023-05-17T03:00:20.384Z,82.25
2023-05-17T03:02:48.357Z,82.27
2023-05-17T03:05:16.699Z,82.37
2023-05-17T03:07:49.367Z,82.48
2023-05-17T03:10:17.702Z,82.37
2023-05-17T03:12:46.670Z,82.31
2023-05-17T03:15:17.153Z,82.19
2023-05-17T03:17:45.770Z,82.15
2023-05-17T03:20:14.497Z,81.99
2023-05-17T03:22:42.563Z,81.90
2023-05-17T03:25:10.559Z,81.26
2023-05-17T03:27:38.616Z,80.68
2023-05-17T03:30:07.651Z,80.01
2023-05-17T03:32:39.596Z,79.75
2023-05-17T03:35:08.590Z,79.17
2023-05-17T03:37:37.528Z,78.75
2023-05-17T03:40:06.577Z,78.89
2023-05-17T03:42:34.496Z,78.97
2023-05-17T03:45:04.724Z,78.93
2023-05-17T03:47:32.791Z,78.97
2023-05-17T03:50:00.776Z,78.03
2023-05-17T03:52:29.873Z,76.92
2023-05-17T03:54:57.808Z,76.42
2023-05-17T03:57:26.222Z,75.69
2023-05-17T03:59:54.412Z,75.51
2023-05-17T04:02:22.909Z,75.60
2023-05-17T04:04:52.989Z,76.02
2023-05-17T04:07:21.118Z,75.98
2023-05-17T04:09:49.247Z,75.93
2023-05-17T04:12:17.287Z,76.25
2023-05-17T04:14:45.497Z,76.28
2023-05-17T04:17:16.274Z,76.53
2023-05-17T04:19:45.001Z,76.99
2023-05-17T04:22:13.477Z,77.41
2023-05-17T04:24:41.470Z,77.99
2023-05-17T04:27:09.894Z,78.58
2023-05-17T04:29:38.021Z,78.99
2023-05-17T04:32:07.186Z,79.63
2023-05-17T04:34:35.502Z,79.84
2023-05-17T04:37:04.325Z,79.92
2023-05-17T04:39:34.163Z,80.39
2023-05-17T04:42:02.391Z,80.66
2023-05-17T04:44:30.760Z,81.13
2023-05-17T04:46:59.306Z,81.18
2023-05-17T04:49:28.543Z,81.21
2023-05-17T04:51:57.704Z,81.54
2023-05-17T04:54:26.435Z,81.71
2023-05-17T04:56:54.685Z,81.24
2023-05-17T04:59:40.990Z,80.55
2023-05-17T05:02:09.049Z,80.33
2023-05-17T05:04:37.654Z,80.79
2023-05-17T05:07:06.488Z,81.06
2023-05-17T05:09:37.706Z,81.03
2023-05-17T05:12:06.775Z,80.83
2023-05-17T05:14:34.985Z,80.74
2023-05-17T05:17:03.138Z,81.01
2023-05-17T05:19:31.805Z,80.70
2023-05-17T05:22:00.810Z,80.58
2023-05-17T05:24:30.479Z,80.42
2023-05-17T05:26:58.515Z,80.58
2023-05-17T05:29:26.654Z,80.82
2023-05-17T05:31:54.914Z,80.65
2023-05-17T05:34:23.393Z,80.02
2023-05-17T05:36:51.943Z,80.01
2023-05-17T05:39:19.923Z,80.09
2023-05-17T05:41:47.776Z,80.39
2023-05-17T05:44:15.959Z,80.82
2023-05-17T05:46:44.160Z,80.97
2023-05-17T05:49:13.365Z,81.26
2023-05-17T05:51:41.376Z,82.17
2023-05-17T05:54:10.357Z,81.96
2023-05-17T05:56:39.946Z,81.40
2023-05-17T05:59:08.132Z,81.23
2023-05-17T06:01:36.248Z,81.25
2023-05-17T06:04:04.323Z,81.34
2023-05-17T06:06:32.491Z,81.43
2023-05-17T06:09:00.591Z,81.55
2023-05-17T06:11:28.671Z,81.81
2023-05-17T06:13:56.554Z,81.81
2023-05-17T06:16:24.603Z,81.76
2023-05-17T06:18:52.649Z,82.04
2023-05-17T06:21:20.862Z,81.67
2023-05-17T06:23:49.186Z,82.00
2023-05-17T06:26:17.272Z,81.82
2023-05-17T06:28:45.134Z,81.43
2023-05-17T06:31:13.069Z,81.81
2023-05-17T06:33:41.139Z,82.26
2023-05-17T06:36:09.393Z,82.71
2023-05-17T06:38:37.578Z,82.71
2023-05-17T06:41:05.780Z,82.58
2023-05-17T06:43:35.649Z,82.68
2023-05-17T06:46:05.081Z,82.88
2023-05-17T06:48:33.310Z,81.56
2023-05-17T06:51:01.508Z,80.68
2023-05-17T06:53:29.563Z,81.24
2023-05-17T06:55:57.487Z,81.16
2023-05-17T06:58:25.475Z,80.54
2023-05-17T07:00:53.526Z,79.84
2023-05-17T07:03:21.574Z,79.23
2023-05-17T07:05:51.412Z,79.51
2023-05-17T07:08:20.502Z,79.70
2023-05-17T07:10:52.161Z,80.33
2023-05-17T07:13:20.829Z,80.65
2023-05-17T07:15:49.105Z,81.12
2023-05-17T07:18:17.435Z,81.50
2023-05-17T07:20:45.525Z,81.81
2023-05-17T07:23:13.470Z,81.25
2023-05-17T07:25:43.241Z,81.37
2023-05-17T07:28:13.181Z,81.47
2023-05-17T07:30:41.146Z,80.91
2023-05-17T07:33:09.094Z,80.71
2023-05-17T07:35:37.124Z,80.42
2023-05-17T07:38:05.300Z,80.71
2023-05-17T07:40:33.359Z,80.86
2023-05-17T07:43:01.413Z,80.78
2023-05-17T07:45:29.959Z,80.82
2023-05-17T07:48:18.185Z,80.95
2023-05-17T07:50:49.453Z,80.82
2023-05-17T07:53:17.436Z,80.64
2023-05-17T07:55:47.687Z,80.34
2023-05-17T07:58:15.737Z,79.86
2023-05-17T08:00:43.756Z,79.75
2023-05-17T08:03:11.926Z,80.27
2023-05-17T08:05:39.989Z,80.20
2023-05-17T08:08:08.113Z,80.08
2023-05-17T08:10:37.912Z,80.01
2023-05-17T08:13:06.339Z,80.05
2023-05-17T08:15:34.352Z,80.21
2023-05-17T08:18:22.396Z,80.69
2023-05-17T08:21:11.571Z,81.07
2023-05-17T08:24:21.194Z,81.23
2023-05-17T08:27:31.267Z,80.84
2023-05-17T08:30:18.030Z,80.99
2023-05-17T08:32:49.568Z,81.54
2023-05-17T08:35:17.819Z,81.70
2023-05-17T08:37:45.768Z,81.52
2023-05-17T08:40:15.254Z,81.76
2023-05-17T08:43:03.515Z,81.82
2023-05-17T08:45:52.028Z,81.52
2023-05-17T08:48:20.528Z,81.54
2023-05-17T08:50:51.866Z,81.90
2023-05-17T08:54:20.257Z,81.87
2023-05-17T08:56:52.343Z,81.24
2023-05-17T08:59:22.002Z,81.34
2023-05-17T09:01:53.934Z,81.33
2023-05-17T09:04:43.335Z,81.39
2023-05-17T09:07:31.511Z,81.53
2023-05-17T09:10:19.713Z,81.41
2023-05-17T09:12:48.708Z,81.36
2023-05-17T09:15:38.102Z,80.96
2023-05-17T09:18:07.999Z,80.80
2023-05-17T09:21:02.798Z,80.12
2023-05-17T09:24:02.288Z,79.80
2023-05-17T09:27:04.278Z,79.39
2023-05-17T09:29:53.217Z,79.50
2023-05-17T09:35:47.134Z,80.81
2023-05-17T09:39:19.317Z,81.08
2023-05-17T09:42:07.584Z,80.76
2023-05-17T09:45:41.214Z,80.93
2023-05-17T09:48:38.577Z,81.43
2023-05-17T09:51:07.718Z,82.22
2023-05-17T09:53:58.760Z,82.92
2023-05-17T09:56:50.483Z,84.01
2023-05-17T09:59:38.953Z,84.23
2023-05-17T10:02:32.483Z,84.57
2023-05-17T10:05:21.308Z,84.96
2023-05-17T10:07:50.800Z,84.67
2023-05-17T10:10:19.421Z,84.57
2023-05-17T10:12:49.330Z,84.60
2023-05-17T10:15:18.727Z,84.62
2023-05-17T10:18:07.003Z,84.30
2023-05-17T10:20:56.753Z,83.88
2023-05-17T10:23:27.719Z,83.57
2023-05-17T10:25:56.650Z,83.24
2023-05-17T10:28:27.328Z,82.36
2023-05-17T10:31:15.934Z,82.14
2023-05-17T10:33:49.499Z,82.32
2023-05-17T10:36:18.727Z,81.83
2023-05-17T10:39:11.852Z,81.21
2023-05-17T10:42:13.572Z,81.36
2023-05-17T10:57:12.955Z,79.95
2023-05-17T11:17:34.649Z,76.97
2023-05-17T11:20:11.613Z,76.84
2023-05-17T11:22:50.751Z,77.21
2023-05-17T11:25:19.208Z,78.10
2023-05-17T11:27:52.432Z,77.87
2023-05-17T11:30:28.981Z,77.59
2023-05-17T11:33:13.507Z,77.48
2023-05-17T11:35:50.618Z,77.63
2023-05-17T11:38:21.956Z,77.70
2023-05-17T11:41:26.394Z,77.28
2023-05-17T11:43:55.686Z,77.18
2023-05-17T11:46:24.844Z,75.52
2023-05-17T11:48:54.011Z,76.02
2023-05-17T11:51:25.217Z,75.11
2023-05-17T11:53:57.195Z,74.34
2023-05-17T11:56:42.003Z,73.20
2023-05-17T11:59:37.144Z,71.60
2023-05-17T12:02:05.755Z,70.38
2023-05-17T12:04:38.067Z,71.09
2023-05-17T12:07:10.696Z,70.77
2023-05-17T12:09:39.222Z,69.83
2023-05-17T12:12:08.845Z,70.62
2023-05-17T12:14:37.307Z,70.77
2023-05-17T12:17:09.434Z,71.32
2023-05-17T12:19:37.519Z,70.66
2023-05-17T12:22:08.385Z,71.34
2023-05-17T12:24:43.677Z,72.48
2023-05-17T12:27:11.942Z,72.93
2023-05-17T12:29:40.186Z,72.82
2023-05-17T12:32:10.607Z,72.86
2023-05-17T12:34:38.949Z,72.99
2023-05-17T12:37:10.677Z,72.57
2023-05-17T12:39:40.779Z,72.36
2023-05-17T12:42:09.725Z,72.38
2023-05-17T12:44:37.851Z,72.26
2023-05-17T12:47:06.231Z,72.23
2023-05-17T12:49:39.267Z,72.22
2023-05-17T12:52:07.945Z,72.62
2023-05-17T12:54:36.835Z,72.47
2023-05-17T12:57:14.239Z,72.50
2023-05-17T13:00:09.425Z,72.55
2023-05-17T13:02:43.652Z,72.43
2023-05-17T13:05:16.353Z,73.11
2023-05-17T13:07:46.470Z,73.31
2023-05-17T13:10:28.563Z,74.06
2023-05-17T13:13:00.838Z,74.25
2023-05-17T13:15:33.941Z,74.74
2023-05-17T13:18:14.213Z,74.47
2023-05-17T13:20:43.172Z,74.60
2023-05-17T13:23:11.315Z,75.23
2023-05-17T13:25:39.406Z,75.71
2023-05-17T13:28:07.386Z,76.75
2023-05-17T13:30:55.363Z,77.02
2023-05-17T13:33:23.742Z,77.68
2023-05-17T13:35:51.796Z,77.86
2023-05-17T13:38:40.232Z,77.18
2023-05-17T13:41:48.358Z,76.90
2023-05-17T13:44:37.685Z,77.06
2023-05-17T13:47:27.540Z,76.73
2023-05-17T13:50:16.627Z,75.78
2023-05-17T13:53:06.140Z,75.48
2023-05-17T13:56:14.632Z,75.11
2023-05-17T13:59:22.914Z,75.08
2023-05-17T14:02:13.327Z,75.32
2023-05-17T14:04:41.896Z,75.64
2023-05-17T14:07:51.781Z,75.02
2023-05-17T14:10:42.425Z,74.80
2023-05-17T14:27:26.421Z,74.55
2023-05-17T14:30:56.267Z,75.05
2023-05-17T14:34:25.201Z,75.46
2023-05-17T14:37:15.664Z,75.13
2023-05-17T14:46:28.719Z,74.55
2023-05-17T14:49:37.807Z,74.70
2023-05-17T14:52:47.301Z,74.75
2023-05-17T14:55:58.598Z,74.91
2023-05-17T14:59:12.033Z,74.87
2023-05-17T15:01:41.557Z,75.22
2023-05-17T15:04:30.322Z,75.38
2023-05-17T15:19:23.598Z,73.82
2023-05-17T15:21:53.398Z,73.87
2023-05-17T15:24:44.907Z,73.61
2023-05-17T15:28:13.797Z,74.41
2023-05-17T15:44:51.783Z,75.96
2023-05-17T15:48:21.732Z,76.24
2023-05-17T16:02:34.905Z,77.38
2023-05-17T16:05:44.269Z,77.87
2023-05-17T16:16:44.989Z,77.98
2023-05-17T16:20:14.398Z,77.92
2023-05-17T16:34:56.547Z,79.63
2023-05-17T16:37:24.786Z,79.62
2023-05-17T16:40:13.927Z,79.79
2023-05-17T16:42:43.053Z,80.51
2023-05-17T16:45:12.014Z,80.70
2023-05-17T16:47:40.290Z,81.14
2023-05-17T16:50:09.252Z,81.55
2023-05-17T16:52:37.457Z,82.02
2023-05-17T16:55:06.066Z,82.80
2023-05-17T16:57:34.312Z,83.52
2023-05-17T17:00:23.041Z,83.59
2023-05-17T17:02:51.664Z,83.70
2023-05-17T17:05:20.424Z,84.48
2023-05-17T17:07:52.296Z,84.58
2023-05-17T17:10:20.929Z,85.41
2023-05-17T17:12:50.049Z,85.43
2023-05-17T17:15:18.704Z,86.03
2023-05-17T17:18:07.903Z,86.18
2023-05-17T17:20:57.425Z,86.05
2023-05-17T17:23:25.842Z,85.69
2023-05-17T17:25:54.187Z,86.32
2023-05-17T17:28:23.110Z,86.56
2023-05-17T17:30:51.936Z,86.19
2023-05-17T17:33:20.377Z,86.62
2023-05-17T17:35:48.850Z,86.61
2023-05-17T17:38:18.049Z,86.84
2023-05-17T17:40:46.792Z,86.97
2023-05-17T17:43:15.256Z,86.76
2023-05-17T17:45:46.472Z,86.97
2023-05-17T17:48:14.652Z,87.60
2023-05-17T17:50:44.501Z,87.78
2023-05-17T17:53:12.913Z,87.96
2023-05-17T17:55:41.250Z,88.23
2023-05-17T17:58:49.520Z,88.19
2023-05-17T18:01:18.952Z,88.03
2023-05-17T18:04:08.453Z,87.98
2023-05-17T18:06:57.205Z,88.74
2023-05-17T18:10:06.451Z,89.49
2023-05-17T18:13:15.032Z,89.21
2023-05-17T18:19:29.821Z,89.54
2023-05-17T18:22:39.263Z,89.61
2023-05-17T18:26:08.015Z,89.63
2023-05-17T18:29:17.612Z,90.02
2023-05-17T18:32:22.135Z,90.52
2023-05-17T18:49:16.541Z,85.96
2023-05-17T18:51:44.758Z,84.76
2023-05-17T18:54:12.967Z,84.21
2023-05-17T18:56:41.168Z,84.18
2023-05-17T18:59:09.376Z,84.24
2023-05-17T19:01:37.546Z,83.89
2023-05-17T19:04:05.918Z,83.42
2023-05-17T19:06:34.153Z,83.00
2023-05-17T19:09:02.772Z,82.41
2023-05-17T19:11:50.780Z,82.14
2023-05-17T19:14:18.983Z,82.16
2023-05-17T19:17:10.194Z,82.26
2023-05-17T19:19:38.365Z,82.36
2023-05-17T19:22:06.345Z,82.19
2023-05-17T19:24:35.354Z,82.01
2023-05-17T19:27:03.627Z,81.67
2023-05-17T19:29:33.125Z,81.60
2023-05-17T19:32:01.320Z,81.68
2023-05-17T19:34:29.335Z,81.43
2023-05-17T19:36:58.851Z,81.34
2023-05-17T19:39:27.065Z,81.13
2023-05-17T19:41:54.982Z,80.78
2023-05-17T19:44:23.055Z,80.60
2023-05-17T19:46:51.810Z,80.67
2023-05-17T19:49:20.079Z,80.51
2023-05-17T19:51:48.506Z,80.43
2023-05-17T19:54:16.605Z,80.46
2023-05-17T19:56:44.850Z,80.66
2023-05-17T19:59:12.850Z,80.77
2023-05-17T20:01:40.872Z,80.85
2023-05-17T20:04:10.507Z,81.29
2023-05-17T20:06:39.036Z,81.67
2023-05-17T20:09:07.677Z,81.77
2023-05-17T20:11:38.444Z,82.08
2023-05-17T20:14:06.781Z,82.40
2023-05-17T20:16:35.268Z,82.62
2023-05-17T20:19:05.067Z,82.86
2023-05-17T20:21:33.524Z,83.19
2023-05-17T20:24:21.615Z,83.27
2023-05-17T20:27:09.857Z,83.54
2023-05-17T21:31:31.904Z,81.38
2023-05-17T21:34:06.635Z,81.32
2023-05-17T21:36:53.407Z,81.23
2023-05-17T21:39:31.838Z,81.17
2023-05-17T21:45:16.619Z,80.96
2023-05-17T21:51:12.003Z,81.17
2023-05-17T21:54:25.610Z,81.26
2023-05-17T22:01:11.042Z,81.61
2023-05-17T22:31:52.737Z,80.89
2023-05-17T22:34:21.905Z,80.86
2023-05-17T22:36:50.025Z,80.60
2023-05-17T22:39:17.899Z,80.47
2023-05-17T22:41:45.862Z,80.38
2023-05-17T22:44:13.738Z,80.15
2023-05-17T22:46:42.169Z,80.01
2023-05-17T22:49:10.787Z,79.68
2023-05-17T22:51:38.893Z,79.46
2023-05-17T22:54:06.960Z,79.05
2023-05-17T22:56:34.964Z,78.34
2023-05-17T22:59:03.048Z,77.83
2023-05-17T23:01:31.742Z,77.49
2023-05-17T23:03:59.813Z,77.01
2023-05-17T23:06:27.886Z,76.61
2023-05-17T23:08:55.815Z,76.08
2023-05-17T23:11:23.749Z,76.12
2023-05-17T23:13:51.633Z,75.96
2023-05-17T23:16:19.580Z,75.87
2023-05-17T23:18:47.664Z,75.64
2023-05-17T23:21:15.782Z,75.56
2023-05-17T23:23:43.666Z,75.18
2023-05-17T23:26:11.550Z,75.09
2023-05-17T23:28:39.400Z,74.81
2023-05-17T23:31:08.507Z,74.37
2023-05-17T23:33:36.489Z,74.25
2023-05-17T23:36:04.604Z,74.02
2023-05-17T23:38:32.731Z,73.92
2023-05-17T23:41:01.140Z,73.71
2023-05-17T23:43:29.161Z,73.55
2023-05-17T23:45:57.582Z,73.36
2023-05-17T23:48:28.497Z,73.29
2023-05-17T23:50:56.746Z,73.06
2023-05-17T23:53:26.322Z,73.13
2023-05-17T23:55:54.268Z,73.03
2023-05-17T23:58:22.211Z,73.08
